Time,TemperatureF,DewpointF,PressureIn,WindDirection,WindDirectionDegrees,WindSpeedMPH,WindSpeedGustMPH,Humidity,HourlyPrecipIn,Conditions,Clouds,dailyrainin,SoftwareType,DateUTC
2013-10-08 00:00:00,48.2,45.1,30.02,WSW,243,0.0,0.0,89,0.00,,OVC016,0.00,VWS V14.01,2013-10-08 05:00:00,
2013-10-08 00:03:00,48.1,45.0,30.03,WSW,243,0.0,0.0,89,0.00,,FEW250,0.00,VWS V14.01,2013-10-08 05:03:00,
2013-10-08 00:05:00,48.0,44.9,30.03,WSW,243,0.0,0.0,89,0.00,,OVC016,0.00,VWS V14.01,2013-10-08 05:05:00,
2013-10-08 00:08:00,47.8,44.7,30.03,WSW,243,0.0,0.0,89,0.00,,FEW250,0.00,VWS V14.01,2013-10-08 05:08:00,
2013-10-08 00:10:00,47.8,45.0,30.03,WSW,243,0.0,0.0,90,0.00,,OVC016,0.00,VWS V14.01,2013-10-08 05:10:00,
2013-10-08 00:13:00,47.7,44.9,30.03,WSW,243,0.0,0.0,90,0.00,,FEW250,0.00,VWS V14.01,2013-10-08 05:13:00,
2013-10-08 00:15:00,47.8,45.0,30.03,WSW,243,0.0,0.0,90,0.00,,OVC016,0.00,VWS V14.01,2013-10-08 05:15:00,
2013-10-08 00:18:00,47.7,44.9,30.03,WSW,243,0.0,0.0,90,0.00,,FEW250,0.00,VWS V14.01,2013-10-08 05:18:00,
2013-10-08 00:20:00,47.7,44.9,30.03,WSW,243,0.0,0.0,90,0.00,,OVC016,0.00,VWS V14.01,2013-10-08 05:20:00,
2013-10-08 00:23:00,47.7,44.9,30.03,WSW,243,0.0,0.0,90,0.00,,FEW250,0.00,VWS V14.01,2013-10-08 05:23:00,
2013-10-08 00:25:00,47.7,44.9,30.03,WSW,243,0.0,0.0,90,0.00,,OVC016,0.00,VWS V14.01,2013-10-08 05:25:00,
2013-10-08 00:28:00,47.7,44.9,30.03,WSW,243,0.0,0.0,90,0.00,,FEW250,0.00,VWS V14.01,2013-10-08 05:28:00,
2013-10-08 00:30:00,47.7,44.9,30.03,WSW,243,0.0,0.0,90,0.00,,OVC016,0.00,VWS V14.01,2013-10-08 05:30:00,
2013-10-08 00:33:00,47.6,44.8,30.03,WSW,243,0.0,0.0,90,0.00,,FEW250,0.00,VWS V14.01,2013-10-08 05:33:00,
2013-10-08 00:35:00,47.6,44.8,30.03,WSW,243,0.0,0.0,90,0.00,,OVC016,0.00,VWS V14.01,2013-10-08 05:35:00,
2013-10-08 00:39:00,47.5,44.7,30.03,WSW,243,0.0,0.0,90,0.00,,FEW250,0.00,VWS V14.01,2013-10-08 05:39:00,
2013-10-08 00:40:00,47.5,44.7,30.03,WSW,243,0.0,0.0,90,0.00,,OVC016,0.00,VWS V14.01,2013-10-08 05:40:00,
2013-10-08 00:44:00,47.4,44.6,30.03,WSW,243,0.0,0.0,90,0.00,,FEW250,0.00,VWS V14.01,2013-10-08 05:44:00,
2013-10-08 00:45:00,47.4,44.6,30.03,WSW,243,0.0,0.0,90,0.00,,OVC016,0.00,VWS V14.01,2013-10-08 05:45:00,
2013-10-08 00:49:00,47.3,44.5,30.03,WSW,243,0.0,0.0,90,0.00,,FEW250,0.00,VWS V14.01,2013-10-08 05:49:00,
2013-10-08 00:50:00,47.3,44.5,30.03,WSW,243,0.0,0.0,90,0.00,,OVC016,0.00,VWS V14.01,2013-10-08 05:50:00,
2013-10-08 00:54:00,47.2,44.4,30.03,WSW,243,0.0,0.0,90,0.00,,FEW250,0.00,VWS V14.01,2013-10-08 05:54:00,
2013-10-08 00:55:00,47.2,44.4,30.03,WSW,243,0.0,0.0,90,0.00,,OVC016,0.00,VWS V14.01,2013-10-08 05:55:00,
2013-10-08 00:59:00,47.1,44.3,30.03,WSW,243,0.0,0.0,90,0.00,,FEW250,0.00,VWS V14.01,2013-10-08 05:59:00,
2013-10-08 01:00:00,47.1,44.3,30.03,WSW,243,0.0,0.0,90,0.00,,OVC016,0.00,VWS V14.01,2013-10-08 06:00:00,
2013-10-08 01:04:00,47.0,44.2,30.03,WSW,243,0.0,0.0,90,0.00,,FEW250,0.00,VWS V14.01,2013-10-08 06:04:00,
2013-10-08 01:05:00,47.0,44.2,30.03,WSW,243,0.0,0.0,90,0.00,,OVC016,0.00,VWS V14.01,2013-10-08 06:05:00,
2013-10-08 01:09:00,47.0,44.2,30.03,WSW,243,0.0,0.0,90,0.00,,FEW250,0.00,VWS V14.01,2013-10-08 06:09:00,
2013-10-08 01:10:00,47.0,44.2,30.03,WSW,243,0.0,0.0,90,0.00,,OVC016,0.00,VWS V14.01,2013-10-08 06:10:00,
2013-10-08 01:14:00,46.9,44.4,30.03,WSW,243,0.0,0.0,91,0.00,,FEW250,0.00,VWS V14.01,2013-10-08 06:14:00,
2013-10-08 01:15:00,46.9,44.1,30.03,WSW,243,0.0,0.0,90,0.00,,OVC016,0.00,VWS V14.01,2013-10-08 06:15:00,
2013-10-08 01:19:00,46.7,44.2,30.03,WSW,243,0.0,0.0,91,0.00,,FEW250,0.00,VWS V14.01,2013-10-08 06:19:00,
2013-10-08 01:20:00,46.7,44.2,30.03,WSW,243,0.0,0.0,91,0.00,,OVC016,0.00,VWS V14.01,2013-10-08 06:20:00,
2013-10-08 01:24:00,46.6,44.1,30.03,WSW,243,0.0,0.0,91,0.00,,FEW250,0.00,VWS V14.01,2013-10-08 06:24:00,
2013-10-08 01:25:00,46.6,44.1,30.03,WSW,243,0.0,0.0,91,0.00,,OVC016,0.00,VWS V14.01,2013-10-08 06:25:00,
2013-10-08 01:29:00,46.5,44.0,30.03,WSW,243,0.0,0.0,91,0.00,,FEW250,0.00,VWS V14.01,2013-10-08 06:29:00,
2013-10-08 01:30:00,46.5,44.0,30.03,WSW,244,0.0,0.0,91,0.00,,OVC016,0.00,VWS V14.01,2013-10-08 06:30:00,
2013-10-08 01:34:00,46.4,43.9,30.03,WSW,243,0.0,0.0,91,0.00,,FEW250,0.00,VWS V14.01,2013-10-08 06:34:00,
2013-10-08 01:35:00,46.4,43.9,30.03,WSW,243,0.0,0.0,91,0.00,,OVC016,0.00,VWS V14.01,2013-10-08 06:35:00,
2013-10-08 01:39:00,46.3,43.8,30.03,WSW,243,0.0,0.0,91,0.00,,FEW250,0.00,VWS V14.01,2013-10-08 06:39:00,
2013-10-08 01:40:00,46.3,43.8,30.03,WSW,243,0.0,0.0,91,0.00,,OVC016,0.00,VWS V14.01,2013-10-08 06:40:00,
2013-10-08 01:44:00,46.1,43.6,30.03,WSW,243,0.0,0.0,91,0.00,,FEW250,0.00,VWS V14.01,2013-10-08 06:44:00,
2013-10-08 01:45:00,46.1,43.6,30.03,WSW,243,0.0,0.0,91,0.00,,OVC016,0.00,VWS V14.01,2013-10-08 06:45:00,
2013-10-08 01:49:00,45.9,43.4,30.03,WSW,244,0.0,0.0,91,0.00,,FEW250,0.00,VWS V14.01,2013-10-08 06:49:00,
2013-10-08 01:54:00,45.7,43.2,30.03,WSW,243,0.0,0.0,91,0.00,,FEW250,0.00,VWS V14.01,2013-10-08 06:54:00,
2013-10-08 01:55:00,45.7,43.2,30.03,WSW,243,0.0,0.0,91,0.00,,OVC016,0.00,VWS V14.01,2013-10-08 06:55:00,
2013-10-08 01:59:00,45.7,43.2,30.03,WSW,243,0.0,0.0,91,0.00,,FEW250,0.00,VWS V14.01,2013-10-08 06:59:00,
2013-10-08 02:00:00,45.7,43.2,30.03,WSW,243,0.0,0.0,91,0.00,,OVC016,0.00,VWS V14.01,2013-10-08 07:00:00,
2013-10-08 02:04:00,45.8,43.6,30.04,WSW,243,0.0,0.0,92,0.00,,FEW250,0.00,VWS V14.01,2013-10-08 07:04:00,
2013-10-08 02:05:00,45.8,43.6,30.04,WSW,243,0.0,0.0,92,0.00,,OVC016,0.00,VWS V14.01,2013-10-08 07:05:00,
2013-10-08 02:09:00,45.6,43.1,30.03,WSW,244,0.0,0.0,91,0.00,,FEW250,0.00,VWS V14.01,2013-10-08 07:09:00,
2013-10-08 02:10:00,45.6,43.1,30.03,WSW,244,0.0,0.0,91,0.00,,OVC016,0.00,VWS V14.01,2013-10-08 07:10:00,
2013-10-08 02:14:00,45.4,42.9,30.04,WSW,243,0.0,0.0,91,0.00,,FEW250,0.00,VWS V14.01,2013-10-08 07:14:00,
2013-10-08 02:15:00,45.4,42.9,30.04,WSW,243,0.0,0.0,91,0.00,,OVC016,0.00,VWS V14.01,2013-10-08 07:15:00,
2013-10-08 02:19:00,45.2,42.7,30.04,WSW,243,0.0,0.0,91,0.00,,FEW250,0.00,VWS V14.01,2013-10-08 07:19:00,
2013-10-08 02:20:00,45.2,42.7,30.04,WSW,243,0.0,0.0,91,0.00,,OVC016,0.00,VWS V14.01,2013-10-08 07:20:00,
2013-10-08 02:24:00,45.2,43.0,30.04,WSW,243,0.0,0.0,92,0.00,,FEW250,0.00,VWS V14.01,2013-10-08 07:24:00,
2013-10-08 02:25:00,45.2,43.0,30.04,WSW,243,0.0,0.0,92,0.00,,OVC016,0.00,VWS V14.01,2013-10-08 07:25:00,
2013-10-08 02:29:00,45.1,42.9,30.04,WSW,243,0.0,0.0,92,0.00,,FEW250,0.00,VWS V14.01,2013-10-08 07:29:00,
2013-10-08 02:30:00,45.1,42.9,30.04,WSW,243,0.0,0.0,92,0.00,,OVC016,0.00,VWS V14.01,2013-10-08 07:30:00,
2013-10-08 02:34:00,45.0,42.8,30.04,WSW,243,0.0,0.0,92,0.00,,FEW250,0.00,VWS V14.01,2013-10-08 07:34:00,
2013-10-08 02:35:00,45.0,42.8,30.04,WSW,243,0.0,0.0,92,0.00,,OVC016,0.00,VWS V14.01,2013-10-08 07:35:00,
2013-10-08 02:39:00,44.9,42.7,30.04,WSW,243,0.0,0.0,92,0.00,,FEW250,0.00,VWS V14.01,2013-10-08 07:39:00,
2013-10-08 02:40:00,44.9,42.7,30.04,WSW,243,0.0,0.0,92,0.00,,OVC016,0.00,VWS V14.01,2013-10-08 07:40:00,
2013-10-08 02:44:00,44.9,42.7,30.04,WSW,243,0.0,0.0,92,0.00,,FEW250,0.00,VWS V14.01,2013-10-08 07:44:00,
2013-10-08 02:45:00,44.9,42.7,30.04,WSW,243,0.0,0.0,92,0.00,,OVC016,0.00,VWS V14.01,2013-10-08 07:45:00,
2013-10-08 02:49:00,45.0,43.1,30.04,WSW,243,0.0,0.0,93,0.00,,FEW250,0.00,VWS V14.01,2013-10-08 07:49:00,
2013-10-08 02:50:00,45.0,43.1,30.04,WSW,243,0.0,0.0,93,0.00,,OVC016,0.00,VWS V14.01,2013-10-08 07:50:00,
2013-10-08 02:54:00,45.1,43.2,30.04,WSW,243,0.0,0.0,93,0.00,,FEW250,0.00,VWS V14.01,2013-10-08 07:54:00,
2013-10-08 02:55:00,45.1,43.2,30.04,WSW,243,0.0,0.0,93,0.00,,OVC016,0.00,VWS V14.01,2013-10-08 07:55:00,
2013-10-08 02:59:00,45.2,43.0,30.04,WSW,244,0.0,0.0,92,0.00,,FEW250,0.00,VWS V14.01,2013-10-08 07:59:00,
2013-10-08 03:00:00,45.2,43.0,30.04,WSW,244,0.0,0.0,92,0.00,,OVC016,0.00,VWS V14.01,2013-10-08 08:00:00,
2013-10-08 03:04:00,45.2,43.0,30.04,WSW,243,0.0,0.0,92,0.00,,CLR,0.00,VWS V14.01,2013-10-08 08:04:00,
2013-10-08 03:05:00,45.2,43.0,30.04,WSW,243,0.0,0.0,92,0.00,,OVC016,0.00,VWS V14.01,2013-10-08 08:05:00,
2013-10-08 03:10:00,45.2,43.0,30.04,WSW,243,0.0,0.0,92,0.00,,CLR,0.00,VWS V14.01,2013-10-08 08:10:00,
2013-10-08 03:15:00,45.3,43.1,30.04,WSW,243,0.0,0.0,92,0.00,,CLR,0.00,VWS V14.01,2013-10-08 08:15:00,
2013-10-08 03:20:00,45.4,43.2,30.04,WSW,243,0.0,0.0,92,0.00,,CLR,0.00,VWS V14.01,2013-10-08 08:20:00,
2013-10-08 03:25:00,45.4,42.9,30.04,WSW,243,0.0,0.0,91,0.00,,CLR,0.00,VWS V14.01,2013-10-08 08:25:00,
2013-10-08 03:30:00,45.3,42.8,30.04,WSW,244,0.0,0.0,91,0.00,,CLR,0.00,VWS V14.01,2013-10-08 08:30:00,
2013-10-08 03:35:00,45.2,42.7,30.04,WSW,243,0.0,0.0,91,0.00,,CLR,0.00,VWS V14.01,2013-10-08 08:35:00,
2013-10-08 03:40:00,45.1,42.6,30.04,WSW,243,0.0,0.0,91,0.00,,CLR,0.00,VWS V14.01,2013-10-08 08:40:00,
2013-10-08 03:45:00,44.9,42.4,30.04,WSW,243,0.0,0.0,91,0.00,,CLR,0.00,VWS V14.01,2013-10-08 08:45:00,
2013-10-08 03:50:00,44.9,42.7,30.05,WSW,243,0.0,0.0,92,0.00,,CLR,0.00,VWS V14.01,2013-10-08 08:50:00,
2013-10-08 03:55:00,44.8,42.6,30.05,WSW,243,0.0,0.0,92,0.00,,OVC016,0.00,VWS V14.01,2013-10-08 08:55:00,
2013-10-08 03:56:00,44.8,42.6,30.05,WSW,243,0.0,0.0,92,0.00,,CLR,0.00,VWS V14.01,2013-10-08 08:56:00,
2013-10-08 04:00:00,44.8,42.6,30.05,WSW,243,0.0,0.0,92,0.00,,OVC016,0.00,VWS V14.01,2013-10-08 09:00:00,
2013-10-08 04:01:00,44.9,42.7,30.05,WSW,243,0.0,0.0,92,0.00,,CLR,0.00,VWS V14.01,2013-10-08 09:01:00,
2013-10-08 04:05:00,44.9,42.7,30.05,WSW,243,0.0,0.0,92,0.00,,OVC016,0.00,VWS V14.01,2013-10-08 09:05:00,
2013-10-08 04:06:00,44.9,42.7,30.05,WSW,243,0.0,0.0,92,0.00,,CLR,0.00,VWS V14.01,2013-10-08 09:06:00,
2013-10-08 04:10:00,44.9,42.7,30.05,WSW,243,0.0,0.0,92,0.00,,OVC016,0.00,VWS V14.01,2013-10-08 09:10:00,
2013-10-08 04:11:00,44.8,42.6,30.05,WSW,243,0.0,0.0,92,0.00,,CLR,0.00,VWS V14.01,2013-10-08 09:11:00,
2013-10-08 04:15:00,44.8,42.6,30.05,WSW,243,0.0,0.0,92,0.00,,OVC016,0.00,VWS V14.01,2013-10-08 09:15:00,
2013-10-08 04:16:00,44.8,42.6,30.05,WSW,243,0.0,0.0,92,0.00,,CLR,0.00,VWS V14.01,2013-10-08 09:16:00,
2013-10-08 04:20:00,44.8,42.3,30.05,WSW,243,0.0,0.0,91,0.00,,OVC016,0.00,VWS V14.01,2013-10-08 09:20:00,
2013-10-08 04:21:00,44.8,42.6,30.05,WSW,243,0.0,0.0,92,0.00,,CLR,0.00,VWS V14.01,2013-10-08 09:21:00,
2013-10-08 04:25:00,44.8,42.6,30.05,WSW,243,0.0,0.0,92,0.00,,OVC016,0.00,VWS V14.01,2013-10-08 09:25:00,
2013-10-08 04:26:00,44.9,42.7,30.05,WSW,243,0.0,0.0,92,0.00,,CLR,0.00,VWS V14.01,2013-10-08 09:26:00,
2013-10-08 04:30:00,44.9,42.7,30.05,WSW,243,0.0,0.0,92,0.00,,OVC016,0.00,VWS V14.01,2013-10-08 09:30:00,
2013-10-08 04:31:00,45.0,42.8,30.05,WSW,243,0.0,0.0,92,0.00,,CLR,0.00,VWS V14.01,2013-10-08 09:31:00,
2013-10-08 04:35:00,45.1,42.9,30.05,WSW,243,0.0,0.0,92,0.00,,OVC016,0.00,VWS V14.01,2013-10-08 09:35:00,
2013-10-08 04:36:00,45.2,43.0,30.05,WSW,243,0.0,0.0,92,0.00,,CLR,0.00,VWS V14.01,2013-10-08 09:36:00,
2013-10-08 04:40:00,45.2,42.7,30.06,WSW,243,0.0,0.0,91,0.00,,OVC016,0.00,VWS V14.01,2013-10-08 09:40:00,
2013-10-08 04:41:00,45.1,42.6,30.06,WSW,243,0.0,0.0,91,0.00,,CLR,0.00,VWS V14.01,2013-10-08 09:41:00,
2013-10-08 04:45:00,45.1,42.6,30.06,WSW,243,0.0,0.0,91,0.00,,OVC016,0.00,VWS V14.01,2013-10-08 09:45:00,
2013-10-08 04:46:00,45.1,42.6,30.06,WSW,243,0.0,0.0,91,0.00,,CLR,0.00,VWS V14.01,2013-10-08 09:46:00,
2013-10-08 04:50:00,45.0,42.5,30.05,WSW,243,0.0,0.0,91,0.00,,OVC016,0.00,VWS V14.01,2013-10-08 09:50:00,
2013-10-08 04:51:00,44.9,42.4,30.06,WSW,243,0.0,0.0,91,0.00,,CLR,0.00,VWS V14.01,2013-10-08 09:51:00,
2013-10-08 04:55:00,44.8,42.3,30.06,WSW,244,0.0,0.0,91,0.00,,OVC016,0.00,VWS V14.01,2013-10-08 09:55:00,
2013-10-08 04:56:00,44.7,42.2,30.06,WSW,243,0.0,0.0,91,0.00,,CLR,0.00,VWS V14.01,2013-10-08 09:56:00,
2013-10-08 05:00:00,44.6,42.1,30.06,WSW,243,0.0,0.0,91,0.00,,OVC016,0.00,VWS V14.01,2013-10-08 10:00:00,
2013-10-08 05:01:00,44.6,42.1,30.06,WSW,243,0.0,0.0,91,0.00,,CLR,0.00,VWS V14.01,2013-10-08 10:01:00,
2013-10-08 05:05:00,44.5,42.0,30.06,WSW,243,0.0,0.0,91,0.00,,OVC016,0.00,VWS V14.01,2013-10-08 10:05:00,
2013-10-08 05:06:00,44.5,42.0,30.06,WSW,243,0.0,0.0,91,0.00,,CLR,0.00,VWS V14.01,2013-10-08 10:06:00,
2013-10-08 05:10:00,44.4,41.9,30.06,WSW,243,0.0,0.0,91,0.00,,OVC016,0.00,VWS V14.01,2013-10-08 10:10:00,
2013-10-08 05:11:00,44.4,41.9,30.06,WSW,243,0.0,0.0,91,0.00,,CLR,0.00,VWS V14.01,2013-10-08 10:11:00,
2013-10-08 05:15:00,44.3,42.1,30.06,WSW,243,0.0,0.0,92,0.00,,OVC016,0.00,VWS V14.01,2013-10-08 10:15:00,
2013-10-08 05:16:00,44.2,41.7,30.06,WSW,243,0.0,0.0,91,0.00,,CLR,0.00,VWS V14.01,2013-10-08 10:16:00,
2013-10-08 05:20:00,44.1,41.9,30.06,WSW,243,0.0,0.0,92,0.00,,OVC016,0.00,VWS V14.01,2013-10-08 10:20:00,
2013-10-08 05:22:00,44.1,41.9,30.06,WSW,243,0.0,0.0,92,0.00,,CLR,0.00,VWS V14.01,2013-10-08 10:22:00,
2013-10-08 05:25:00,44.0,41.8,30.06,WSW,243,0.0,0.0,92,0.00,,OVC016,0.00,VWS V14.01,2013-10-08 10:25:00,
2013-10-08 05:27:00,44.0,41.8,30.06,WSW,243,0.0,0.0,92,0.00,,CLR,0.00,VWS V14.01,2013-10-08 10:27:00,
2013-10-08 05:30:00,44.0,41.8,30.06,WSW,243,0.0,0.0,92,0.00,,OVC016,0.00,VWS V14.01,2013-10-08 10:30:00,
2013-10-08 05:32:00,44.0,41.8,30.07,WSW,243,0.0,0.0,92,0.00,,CLR,0.00,VWS V14.01,2013-10-08 10:32:00,
2013-10-08 05:35:00,44.0,41.8,30.07,WSW,243,0.0,0.0,92,0.00,,OVC016,0.00,VWS V14.01,2013-10-08 10:35:00,
2013-10-08 05:37:00,44.0,42.1,30.07,WSW,243,0.0,0.0,93,0.00,,CLR,0.00,VWS V14.01,2013-10-08 10:37:00,
2013-10-08 05:40:00,44.0,42.1,30.07,WSW,243,0.0,0.0,93,0.00,,OVC016,0.00,VWS V14.01,2013-10-08 10:40:00,
2013-10-08 05:42:00,44.1,42.2,30.07,WSW,243,0.0,0.0,93,0.00,,CLR,0.00,VWS V14.01,2013-10-08 10:42:00,
2013-10-08 05:45:00,44.1,42.2,30.07,WSW,243,0.0,0.0,93,0.00,,OVC016,0.00,VWS V14.01,2013-10-08 10:45:00,
2013-10-08 05:47:00,44.1,42.2,30.07,WSW,243,0.0,0.0,93,0.00,,CLR,0.00,VWS V14.01,2013-10-08 10:47:00,
2013-10-08 05:50:00,44.1,42.2,30.07,WSW,243,0.0,0.0,93,0.00,,OVC016,0.00,VWS V14.01,2013-10-08 10:50:00,
2013-10-08 05:52:00,44.1,42.2,30.07,WSW,243,0.0,0.0,93,0.00,,CLR,0.00,VWS V14.01,2013-10-08 10:52:00,
2013-10-08 05:55:00,44.1,42.2,30.07,WSW,243,0.0,0.0,93,0.00,,OVC016,0.00,VWS V14.01,2013-10-08 10:55:00,
2013-10-08 05:57:00,44.0,41.8,30.07,WSW,243,0.0,0.0,92,0.00,,CLR,0.00,VWS V14.01,2013-10-08 10:57:00,
2013-10-08 06:00:00,44.0,42.1,30.07,WSW,243,0.0,0.0,93,0.00,,OVC016,0.00,VWS V14.01,2013-10-08 11:00:00,
2013-10-08 06:02:00,44.1,42.2,30.07,WSW,243,0.0,0.0,93,0.00,,CLR,0.00,VWS V14.01,2013-10-08 11:02:00,
2013-10-08 06:05:00,44.1,42.2,30.07,WSW,243,0.0,0.0,93,0.00,,OVC016,0.00,VWS V14.01,2013-10-08 11:05:00,
2013-10-08 06:07:00,44.1,42.2,30.07,WSW,244,0.0,0.0,93,0.00,,CLR,0.00,VWS V14.01,2013-10-08 11:07:00,
2013-10-08 06:10:00,44.1,41.9,30.07,WSW,244,0.0,0.0,92,0.00,,OVC016,0.00,VWS V14.01,2013-10-08 11:10:00,
2013-10-08 06:12:00,44.1,41.9,30.08,WSW,244,0.0,0.0,92,0.00,,CLR,0.00,VWS V14.01,2013-10-08 11:12:00,
2013-10-08 06:15:00,44.0,41.8,30.08,WSW,244,0.0,0.0,92,0.00,,OVC016,0.00,VWS V14.01,2013-10-08 11:15:00,
2013-10-08 06:17:00,43.9,41.7,30.08,WSW,244,0.0,0.0,92,0.00,,CLR,0.00,VWS V14.01,2013-10-08 11:17:00,
2013-10-08 06:20:00,43.9,41.7,30.08,WSW,244,0.0,0.0,92,0.00,,OVC016,0.00,VWS V14.01,2013-10-08 11:20:00,
2013-10-08 06:22:00,43.9,41.7,30.08,WSW,244,0.0,0.0,92,0.00,,CLR,0.00,VWS V14.01,2013-10-08 11:22:00,
2013-10-08 06:25:00,43.9,42.0,30.08,WSW,244,0.0,0.0,93,0.00,,OVC016,0.00,VWS V14.01,2013-10-08 11:25:00,
2013-10-08 06:27:00,44.1,42.2,30.08,WSW,244,0.0,0.0,93,0.00,,CLR,0.00,VWS V14.01,2013-10-08 11:27:00,
2013-10-08 06:30:00,44.1,42.2,30.08,WSW,244,0.0,0.0,93,0.00,,OVC016,0.00,VWS V14.01,2013-10-08 11:30:00,
2013-10-08 06:32:00,44.1,42.2,30.08,WSW,244,0.0,0.0,93,0.00,,CLR,0.00,VWS V14.01,2013-10-08 11:32:00,
2013-10-08 06:35:00,44.2,42.3,30.08,WSW,244,0.0,0.0,93,0.00,,OVC016,0.00,VWS V14.01,2013-10-08 11:35:00,
2013-10-08 06:37:00,44.2,42.3,30.08,WSW,244,0.0,0.0,93,0.00,,CLR,0.00,VWS V14.01,2013-10-08 11:37:00,
2013-10-08 06:40:00,44.1,42.2,30.08,WSW,244,0.0,0.0,93,0.00,,OVC016,0.00,VWS V14.01,2013-10-08 11:40:00,
2013-10-08 06:42:00,44.1,42.2,30.08,WSW,244,0.0,0.0,93,0.00,,CLR,0.00,VWS V14.01,2013-10-08 11:42:00,
2013-10-08 06:45:00,44.1,42.2,30.08,WSW,244,0.0,0.0,93,0.00,,OVC016,0.00,VWS V14.01,2013-10-08 11:45:00,
2013-10-08 06:47:00,44.2,42.3,30.08,WSW,244,0.0,0.0,93,0.00,,CLR,0.00,VWS V14.01,2013-10-08 11:47:00,
2013-10-08 06:50:00,44.3,42.4,30.08,WSW,244,0.0,0.0,93,0.00,,OVC016,0.00,VWS V14.01,2013-10-08 11:50:00,
2013-10-08 06:52:00,44.3,42.4,30.08,WSW,244,0.0,0.0,93,0.00,,CLR,0.00,VWS V14.01,2013-10-08 11:52:00,
2013-10-08 06:55:00,44.3,42.4,30.08,WSW,244,0.0,0.0,93,0.00,,OVC016,0.00,VWS V14.01,2013-10-08 11:55:00,
2013-10-08 06:58:00,44.3,42.4,30.08,WSW,244,0.0,0.0,93,0.00,,CLR,0.00,VWS V14.01,2013-10-08 11:58:00,
2013-10-08 07:00:00,44.3,42.1,30.08,WSW,244,0.0,0.0,92,0.00,,OVC016,0.00,VWS V14.01,2013-10-08 12:00:00,
2013-10-08 07:03:00,44.4,42.2,30.09,WSW,244,0.0,0.0,92,0.00,,CLR,0.00,VWS V14.01,2013-10-08 12:03:00,
2013-10-08 07:05:00,44.5,42.3,30.09,WSW,244,0.0,0.0,92,0.00,,OVC016,0.00,VWS V14.01,2013-10-08 12:05:00,
2013-10-08 07:08:00,44.6,42.4,30.09,WSW,244,0.0,0.0,92,0.00,,CLR,0.00,VWS V14.01,2013-10-08 12:08:00,
2013-10-08 07:10:00,44.7,42.5,30.09,WSW,244,0.0,0.0,92,0.00,,OVC016,0.00,VWS V14.01,2013-10-08 12:10:00,
2013-10-08 07:13:00,44.7,42.5,30.09,WSW,244,0.0,0.0,92,0.00,,CLR,0.00,VWS V14.01,2013-10-08 12:13:00,
2013-10-08 07:15:00,44.7,42.5,30.09,WSW,244,0.0,0.0,92,0.00,,OVC016,0.00,VWS V14.01,2013-10-08 12:15:00,
2013-10-08 07:18:00,44.7,42.5,30.09,WSW,244,0.0,0.0,92,0.00,,CLR,0.00,VWS V14.01,2013-10-08 12:18:00,
2013-10-08 07:20:00,44.8,42.6,30.09,WSW,244,0.0,0.0,92,0.00,,OVC016,0.00,VWS V14.01,2013-10-08 12:20:00,
2013-10-08 07:23:00,44.9,42.7,30.09,WSW,244,0.0,0.0,92,0.00,,CLR,0.00,VWS V14.01,2013-10-08 12:23:00,
2013-10-08 07:25:00,45.0,42.8,30.09,WSW,244,0.0,0.0,92,0.00,,OVC016,0.00,VWS V14.01,2013-10-08 12:25:00,
2013-10-08 07:28:00,45.2,43.0,30.09,WSW,244,0.0,0.0,92,0.00,,CLR,0.00,VWS V14.01,2013-10-08 12:28:00,
2013-10-08 07:30:00,45.3,43.1,30.09,WSW,244,0.0,0.0,92,0.00,,OVC016,0.00,VWS V14.01,2013-10-08 12:30:00,
2013-10-08 07:33:00,45.6,43.4,30.09,WSW,244,0.0,0.0,92,0.00,,CLR,0.00,VWS V14.01,2013-10-08 12:33:00,
2013-10-08 07:35:00,45.6,43.4,30.09,WSW,244,0.0,0.0,92,0.00,,OVC016,0.00,VWS V14.01,2013-10-08 12:35:00,
2013-10-08 07:38:00,45.9,43.4,30.09,WSW,244,0.0,0.0,91,0.00,,CLR,0.00,VWS V14.01,2013-10-08 12:38:00,
2013-10-08 07:40:00,46.0,43.5,30.09,WSW,244,0.0,0.0,91,0.00,,OVC016,0.00,VWS V14.01,2013-10-08 12:40:00,
2013-10-08 07:43:00,46.2,43.7,30.09,WSW,244,0.0,0.0,91,0.00,,CLR,0.00,VWS V14.01,2013-10-08 12:43:00,
2013-10-08 07:45:00,46.3,43.5,30.09,WSW,244,0.0,0.0,90,0.00,,OVC016,0.00,VWS V14.01,2013-10-08 12:45:00,
2013-10-08 07:48:00,46.4,43.6,30.10,WSW,244,0.0,0.0,90,0.00,,CLR,0.00,VWS V14.01,2013-10-08 12:48:00,
2013-10-08 07:50:00,46.4,43.6,30.10,WSW,244,0.0,0.0,90,0.00,,OVC016,0.00,VWS V14.01,2013-10-08 12:50:00,
2013-10-08 07:53:00,46.7,43.9,30.10,WSW,244,0.0,0.0,90,0.00,,CLR,0.00,VWS V14.01,2013-10-08 12:53:00,
2013-10-08 07:55:00,46.8,44.0,30.10,WSW,244,0.0,0.0,90,0.00,,OVC016,0.00,VWS V14.01,2013-10-08 12:55:00,
2013-10-08 07:58:00,47.0,44.2,30.10,WSW,244,0.0,0.0,90,0.00,,CLR,0.00,VWS V14.01,2013-10-08 12:58:00,
2013-10-08 08:00:00,47.1,44.3,30.10,WSW,244,0.0,0.0,90,0.00,,OVC016,0.00,VWS V14.01,2013-10-08 13:00:00,
2013-10-08 08:03:00,47.4,44.6,30.10,WSW,244,0.0,0.0,90,0.00,,CLR,0.00,VWS V14.01,2013-10-08 13:03:00,
2013-10-08 08:05:00,47.5,44.4,30.10,WSW,244,0.0,0.0,89,0.00,,OVC016,0.00,VWS V14.01,2013-10-08 13:05:00,
2013-10-08 08:08:00,47.8,44.7,30.10,WSW,244,0.0,0.0,89,0.00,,CLR,0.00,VWS V14.01,2013-10-08 13:08:00,
2013-10-08 08:10:00,47.8,44.7,30.10,WSW,244,0.0,0.0,89,0.00,,OVC016,0.00,VWS V14.01,2013-10-08 13:10:00,
2013-10-08 08:14:00,48.1,44.7,30.10,WSW,244,0.0,0.0,88,0.00,,CLR,0.00,VWS V14.01,2013-10-08 13:14:00,
2013-10-08 08:15:00,48.2,44.8,30.10,WSW,244,0.0,0.0,88,0.00,,OVC016,0.00,VWS V14.01,2013-10-08 13:15:00,
2013-10-08 08:19:00,48.5,45.1,30.10,WSW,244,0.0,0.0,88,0.00,,CLR,0.00,VWS V14.01,2013-10-08 13:19:00,
2013-10-08 08:20:00,48.6,45.2,30.10,WSW,244,0.0,0.0,88,0.00,,OVC016,0.00,VWS V14.01,2013-10-08 13:20:00,
2013-10-08 08:24:00,48.9,45.2,30.10,WSW,244,0.0,0.0,87,0.00,,CLR,0.00,VWS V14.01,2013-10-08 13:24:00,
2013-10-08 08:25:00,49.0,45.3,30.10,WSW,244,0.0,0.0,87,0.00,,OVC016,0.00,VWS V14.01,2013-10-08 13:25:00,
2013-10-08 08:29:00,49.4,46.0,30.10,WSW,244,0.0,0.0,88,0.00,,CLR,0.00,VWS V14.01,2013-10-08 13:29:00,
2013-10-08 08:30:00,49.5,46.1,30.10,WSW,244,0.0,0.0,88,0.00,,OVC016,0.00,VWS V14.01,2013-10-08 13:30:00,
2013-10-08 08:34:00,50.1,46.4,30.10,WSW,244,0.0,0.0,87,0.00,,CLR,0.00,VWS V14.01,2013-10-08 13:34:00,
2013-10-08 08:39:00,50.6,46.6,30.10,WSW,244,0.0,0.0,86,0.00,,CLR,0.00,VWS V14.01,2013-10-08 13:39:00,
2013-10-08 08:40:00,50.7,46.7,30.10,WSW,244,0.0,0.0,86,0.00,,OVC016,0.00,VWS V14.01,2013-10-08 13:40:00,
2013-10-08 08:44:00,51.3,47.3,30.10,WSW,244,0.0,0.0,86,0.00,,CLR,0.00,VWS V14.01,2013-10-08 13:44:00,
2013-10-08 08:45:00,51.4,47.4,30.10,WSW,245,0.0,0.0,86,0.00,,OVC016,0.00,VWS V14.01,2013-10-08 13:45:00,
2013-10-08 08:49:00,52.0,48.3,30.10,WSW,244,0.0,0.0,87,0.00,,CLR,0.00,VWS V14.01,2013-10-08 13:49:00,
2013-10-08 08:50:00,52.1,48.0,30.10,WSW,244,0.0,0.0,86,0.00,,OVC016,0.00,VWS V14.01,2013-10-08 13:50:00,
2013-10-08 08:54:00,53.0,48.9,30.11,WSW,244,0.0,0.0,86,0.00,,CLR,0.00,VWS V14.01,2013-10-08 13:54:00,
2013-10-08 08:55:00,53.1,49.0,30.11,WSW,244,0.0,0.0,86,0.00,,OVC016,0.00,VWS V14.01,2013-10-08 13:55:00,
2013-10-08 08:59:00,53.9,49.5,30.11,WSW,244,0.0,0.0,85,0.00,,CLR,0.00,VWS V14.01,2013-10-08 13:59:00,
2013-10-08 09:00:00,54.0,49.6,30.11,WSW,244,0.0,0.0,85,0.00,,OVC016,0.00,VWS V14.01,2013-10-08 14:00:00,
2013-10-08 09:04:00,54.9,49.8,30.11,WSW,244,0.0,0.0,83,0.00,,CLR,0.00,VWS V14.01,2013-10-08 14:04:00,
2013-10-08 09:09:00,55.8,50.1,30.11,WSW,244,0.0,0.0,81,0.00,,CLR,0.00,VWS V14.01,2013-10-08 14:09:00,
2013-10-08 09:10:00,55.9,50.2,30.11,WSW,244,0.0,0.0,81,0.00,,OVC016,0.00,VWS V14.01,2013-10-08 14:10:00,
2013-10-08 09:14:00,56.6,50.5,30.11,SW,227,0.0,0.0,80,0.00,,CLR,0.00,VWS V14.01,2013-10-08 14:14:00,
2013-10-08 09:15:00,56.7,50.3,30.11,SW,227,0.0,0.0,79,0.00,,OVC016,0.00,VWS V14.01,2013-10-08 14:15:00,
2013-10-08 09:19:00,57.4,50.6,30.11,SSW,206,0.0,0.0,78,0.00,,CLR,0.00,VWS V14.01,2013-10-08 14:19:00,
2013-10-08 09:24:00,58.2,51.0,30.11,SSW,206,0.0,0.0,77,0.00,,CLR,0.00,VWS V14.01,2013-10-08 14:24:00,
2013-10-08 09:25:00,58.2,50.7,30.11,SSW,206,0.0,0.0,76,0.00,,OVC016,0.00,VWS V14.01,2013-10-08 14:25:00,
2013-10-08 09:29:00,59.0,51.1,30.11,SSW,202,0.0,0.0,75,0.00,,CLR,0.00,VWS V14.01,2013-10-08 14:29:00,
2013-10-08 09:30:00,59.0,51.1,30.11,SSW,202,0.0,0.0,75,0.00,,OVC016,0.00,VWS V14.01,2013-10-08 14:30:00,
2013-10-08 09:34:00,60.0,51.7,30.11,SSW,202,0.0,1.0,74,0.00,,CLR,0.00,VWS V14.01,2013-10-08 14:34:00,
2013-10-08 09:35:00,60.1,51.8,30.11,SSW,202,0.0,1.0,74,0.00,,OVC016,0.00,VWS V14.01,2013-10-08 14:35:00,
2013-10-08 09:39:00,60.9,51.8,30.10,SSW,197,0.0,3.0,72,0.00,,CLR,0.00,VWS V14.01,2013-10-08 14:39:00,
2013-10-08 09:40:00,60.9,51.8,30.10,SSW,197,0.0,3.0,72,0.00,,OVC016,0.00,VWS V14.01,2013-10-08 14:40:00,
2013-10-08 09:44:00,61.8,51.5,30.11,South,174,0.0,6.0,69,0.00,,CLR,0.00,VWS V14.01,2013-10-08 14:44:00,
2013-10-08 09:45:00,61.8,51.5,30.11,South,174,0.0,6.0,69,0.00,,OVC016,0.00,VWS V14.01,2013-10-08 14:45:00,
2013-10-08 09:49:00,62.5,51.4,30.10,SSE,163,0.0,6.0,67,0.00,,CLR,0.00,VWS V14.01,2013-10-08 14:49:00,
2013-10-08 09:50:00,62.5,51.4,30.10,SSE,163,0.0,6.0,67,0.00,,OVC016,0.00,VWS V14.01,2013-10-08 14:50:00,
2013-10-08 09:54:00,62.6,50.7,30.10,SSE,163,0.0,0.0,65,0.00,,CLR,0.00,VWS V14.01,2013-10-08 14:54:00,
2013-10-08 09:55:00,62.6,50.7,30.10,SSE,163,0.0,0.0,65,0.00,,OVC016,0.00,VWS V14.01,2013-10-08 14:55:00,
2013-10-08 09:59:00,62.7,50.8,30.11,SSE,163,0.0,0.0,65,0.00,,CLR,0.00,VWS V14.01,2013-10-08 14:59:00,
2013-10-08 10:00:00,62.7,50.8,30.11,SSE,163,0.0,0.0,65,0.00,,OVC016,0.00,VWS V14.01,2013-10-08 15:00:00,
2013-10-08 10:04:00,63.0,50.7,30.11,SSE,163,0.0,0.0,64,0.00,,CLR,0.00,VWS V14.01,2013-10-08 15:04:00,
2013-10-08 10:05:00,63.0,50.7,30.11,SSE,163,0.0,0.0,64,0.00,,OVC016,0.00,VWS V14.01,2013-10-08 15:05:00,
2013-10-08 10:09:00,62.7,49.9,30.11,SSE,153,0.0,0.0,63,0.00,,CLR,0.00,VWS V14.01,2013-10-08 15:09:00,
2013-10-08 10:10:00,62.7,49.9,30.11,SSE,153,0.0,0.0,63,0.00,,OVC016,0.00,VWS V14.01,2013-10-08 15:10:00,
2013-10-08 10:14:00,61.9,50.0,30.10,ESE,122,0.0,0.0,65,0.00,,CLR,0.00,VWS V14.01,2013-10-08 15:14:00,
2013-10-08 10:15:00,61.9,50.0,30.10,ESE,122,0.0,0.0,65,0.00,,OVC016,0.00,VWS V14.01,2013-10-08 15:15:00,
2013-10-08 10:20:00,61.3,49.9,30.10,ESE,121,0.0,0.0,66,0.00,,CLR,0.00,VWS V14.01,2013-10-08 15:20:00,
2013-10-08 10:25:00,61.1,49.3,30.10,ESE,119,0.0,1.0,65,0.00,,CLR,0.00,VWS V14.01,2013-10-08 15:25:00,
2013-10-08 10:30:00,61.2,48.9,30.10,ESE,119,0.0,0.0,64,0.00,,CLR,0.00,VWS V14.01,2013-10-08 15:30:00,
2013-10-08 10:35:00,60.5,48.7,30.11,ESE,119,0.0,0.0,65,0.00,,CLR,0.00,VWS V14.01,2013-10-08 15:35:00,
2013-10-08 10:40:00,59.6,49.0,30.10,ESE,113,0.0,3.0,68,0.00,,CLR,0.00,VWS V14.01,2013-10-08 15:40:00,
2013-10-08 10:45:00,59.6,49.4,30.10,ESE,117,0.0,4.0,69,0.00,,CLR,0.00,VWS V14.01,2013-10-08 15:45:00,
2013-10-08 10:50:00,59.5,49.3,30.10,ESE,105,0.0,3.0,69,0.00,,CLR,0.00,VWS V14.01,2013-10-08 15:50:00,
2013-10-08 10:55:00,59.4,49.2,30.10,East,99,0.0,3.0,69,0.00,,CLR,0.00,VWS V14.01,2013-10-08 15:55:00,
2013-10-08 11:00:00,58.9,49.2,30.10,ESE,115,0.0,4.0,70,0.00,,FEW250,0.00,VWS V14.01,2013-10-08 16:00:00,
2013-10-08 11:05:00,58.4,49.0,30.10,ESE,122,0.0,8.0,71,0.00,,FEW250,0.00,VWS V14.01,2013-10-08 16:05:00,
2013-10-08 11:10:00,58.0,49.4,30.10,ESE,115,0.0,8.0,73,0.00,,FEW250,0.00,VWS V14.01,2013-10-08 16:10:00,
2013-10-08 11:15:00,57.5,49.3,30.10,ESE,119,0.0,7.0,74,0.00,,FEW250,0.00,VWS V14.01,2013-10-08 16:15:00,
2013-10-08 11:20:00,57.7,49.8,30.10,ESE,119,0.0,7.0,75,0.00,,FEW250,0.00,VWS V14.01,2013-10-08 16:20:00,
2013-10-08 11:25:00,57.5,49.7,30.10,SE,142,2.0,7.0,75,0.00,,FEW250,0.00,VWS V14.01,2013-10-08 16:25:00,
2013-10-08 11:30:00,57.6,49.4,30.10,ESE,122,4.0,10.0,74,0.00,,FEW250,0.00,VWS V14.01,2013-10-08 16:30:00,
2013-10-08 11:35:00,57.7,49.5,30.10,SE,125,0.0,10.0,74,0.00,,OVC016,0.00,VWS V14.01,2013-10-08 16:35:00,
2013-10-08 11:36:00,57.8,49.6,30.10,ESE,121,0.0,9.0,74,0.00,,FEW250,0.00,VWS V14.01,2013-10-08 16:36:00,
2013-10-08 11:40:00,57.9,49.3,30.10,ESE,116,2.0,10.0,73,0.00,,OVC016,0.00,VWS V14.01,2013-10-08 16:40:00,
2013-10-08 11:41:00,57.9,49.3,30.10,ESE,111,3.0,10.0,73,0.00,,FEW250,0.00,VWS V14.01,2013-10-08 16:41:00,
2013-10-08 11:45:00,58.1,49.5,30.10,ESE,111,2.0,9.0,73,0.00,,OVC016,0.00,VWS V14.01,2013-10-08 16:45:00,
2013-10-08 11:46:00,58.3,49.7,30.10,SSE,148,0.0,9.0,73,0.00,,FEW250,0.00,VWS V14.01,2013-10-08 16:46:00,
2013-10-08 11:50:00,58.6,50.0,30.10,SE,130,0.0,10.0,73,0.00,,OVC016,0.00,VWS V14.01,2013-10-08 16:50:00,
2013-10-08 11:51:00,58.6,50.0,30.10,ESE,103,7.0,11.0,73,0.00,,FEW250,0.00,VWS V14.01,2013-10-08 16:51:00,
2013-10-08 11:55:00,58.4,50.2,30.10,SE,134,1.0,11.0,74,0.00,,OVC016,0.00,VWS V14.01,2013-10-08 16:55:00,
2013-10-08 11:56:00,58.3,50.4,30.10,SE,141,0.0,11.0,75,0.00,,FEW250,0.00,VWS V14.01,2013-10-08 16:56:00,
2013-10-08 12:00:00,58.4,50.5,30.10,ESE,119,4.0,8.0,75,0.00,,OVC016,0.00,VWS V14.01,2013-10-08 17:00:00,
2013-10-08 12:01:00,58.4,50.5,30.10,SE,135,4.0,8.0,75,0.00,,FEW250,0.00,VWS V14.01,2013-10-08 17:01:00,
2013-10-08 12:05:00,58.5,50.6,30.10,SSE,161,0.0,10.0,75,0.00,,OVC016,0.00,VWS V14.01,2013-10-08 17:05:00,
2013-10-08 12:06:00,58.5,50.6,30.10,ESE,122,0.0,8.0,75,0.00,,FEW250,0.00,VWS V14.01,2013-10-08 17:06:00,
2013-10-08 12:10:00,58.5,50.6,30.09,SE,127,0.0,8.0,75,0.00,,OVC016,0.00,VWS V14.01,2013-10-08 17:10:00,
2013-10-08 12:11:00,58.5,50.6,30.09,SE,126,0.0,9.0,75,0.00,,FEW250,0.00,VWS V14.01,2013-10-08 17:11:00,
2013-10-08 12:15:00,58.6,50.0,30.09,SE,138,0.0,11.0,73,0.00,,OVC016,0.00,VWS V14.01,2013-10-08 17:15:00,
2013-10-08 12:16:00,58.8,50.2,30.09,North,360,0.0,11.0,73,0.00,,FEW250,0.00,VWS V14.01,2013-10-08 17:16:00,
2013-10-08 12:20:00,59.3,50.7,30.09,SE,126,0.0,7.0,73,0.00,,OVC016,0.00,VWS V14.01,2013-10-08 17:20:00,
2013-10-08 12:21:00,59.4,50.4,30.09,SSE,152,0.0,6.0,72,0.00,,FEW250,0.00,VWS V14.01,2013-10-08 17:21:00,
2013-10-08 12:25:00,59.5,50.1,30.09,ESE,105,0.0,10.0,71,0.00,,OVC016,0.00,VWS V14.01,2013-10-08 17:25:00,
2013-10-08 12:26:00,59.5,50.1,30.09,ESE,111,4.0,10.0,71,0.00,,FEW250,0.00,VWS V14.01,2013-10-08 17:26:00,
2013-10-08 12:30:00,59.6,51.0,30.09,SE,138,4.0,10.0,73,0.00,,OVC016,0.00,VWS V14.01,2013-10-08 17:30:00,
2013-10-08 12:31:00,59.6,51.0,30.09,ESE,113,0.0,10.0,73,0.00,,FEW250,0.00,VWS V14.01,2013-10-08 17:31:00,
2013-10-08 12:35:00,59.6,51.0,30.09,SE,131,0.0,4.0,73,0.00,,OVC016,0.00,VWS V14.01,2013-10-08 17:35:00,
2013-10-08 12:36:00,59.8,51.1,30.09,SSE,147,1.0,4.0,73,0.00,,FEW250,0.00,VWS V14.01,2013-10-08 17:36:00,
2013-10-08 12:40:00,60.0,51.0,30.09,ESE,114,0.0,12.0,72,0.00,,OVC016,0.00,VWS V14.01,2013-10-08 17:40:00,
2013-10-08 12:41:00,60.0,51.3,30.09,ESE,108,0.0,12.0,73,0.00,,FEW250,0.00,VWS V14.01,2013-10-08 17:41:00,
2013-10-08 12:45:00,60.2,51.5,30.09,SE,145,0.0,5.0,73,0.00,,OVC016,0.00,VWS V14.01,2013-10-08 17:45:00,
2013-10-08 12:46:00,60.1,51.4,30.09,SSE,148,0.0,5.0,73,0.00,,FEW250,0.00,VWS V14.01,2013-10-08 17:46:00,
2013-10-08 12:50:00,59.9,51.6,30.09,SSW,193,0.0,12.0,74,0.00,,OVC016,0.00,VWS V14.01,2013-10-08 17:50:00,
2013-10-08 12:51:00,59.9,52.0,30.09,ESE,123,0.0,8.0,75,0.00,,FEW250,0.00,VWS V14.01,2013-10-08 17:51:00,
2013-10-08 12:55:00,59.8,51.9,30.09,SSE,150,0.0,10.0,75,0.00,,OVC016,0.00,VWS V14.01,2013-10-08 17:55:00,
2013-10-08 12:57:00,59.9,52.0,30.09,SE,135,0.0,10.0,75,0.00,,FEW250,0.00,VWS V14.01,2013-10-08 17:57:00,
2013-10-08 13:00:00,60.0,52.1,30.08,SE,138,0.0,8.0,75,0.00,,OVC016,0.00,VWS V14.01,2013-10-08 18:00:00,
2013-10-08 13:02:00,60.2,52.3,30.08,SE,134,3.0,9.0,75,0.00,,FEW250,0.00,VWS V14.01,2013-10-08 18:02:00,
2013-10-08 13:05:00,60.4,52.1,30.08,SE,138,4.0,9.0,74,0.00,,OVC016,0.00,VWS V14.01,2013-10-08 18:05:00,
2013-10-08 13:07:00,60.7,52.4,30.08,SE,143,1.0,7.0,74,0.00,,FEW250,0.00,VWS V14.01,2013-10-08 18:07:00,
2013-10-08 13:10:00,60.9,52.6,30.08,SE,146,0.0,9.0,74,0.00,,OVC016,0.00,VWS V14.01,2013-10-08 18:10:00,
2013-10-08 13:12:00,61.0,53.0,30.08,North,360,0.0,9.0,75,0.00,,FEW250,0.00,VWS V14.01,2013-10-08 18:12:00,
2013-10-08 13:15:00,61.0,53.0,30.08,SE,144,0.0,9.0,75,0.00,,OVC016,0.00,VWS V14.01,2013-10-08 18:15:00,
2013-10-08 13:17:00,60.9,53.3,30.08,SSE,165,4.0,9.0,76,0.00,,FEW250,0.00,VWS V14.01,2013-10-08 18:17:00,
2013-10-08 13:20:00,60.8,53.2,30.08,ESE,119,3.0,9.0,76,0.00,,OVC016,0.00,VWS V14.01,2013-10-08 18:20:00,
2013-10-08 13:22:00,60.7,53.1,30.08,SE,128,0.0,11.0,76,0.00,,FEW250,0.00,VWS V14.01,2013-10-08 18:22:00,
2013-10-08 13:25:00,60.6,53.0,30.07,SSE,151,0.0,11.0,76,0.00,,OVC016,0.00,VWS V14.01,2013-10-08 18:25:00,
2013-10-08 13:27:00,60.7,53.1,30.08,SSE,147,4.0,9.0,76,0.00,,FEW250,0.00,VWS V14.01,2013-10-08 18:27:00,
2013-10-08 13:30:00,60.7,53.1,30.07,SE,144,0.0,9.0,76,0.00,,OVC016,0.00,VWS V14.01,2013-10-08 18:30:00,
2013-10-08 13:32:00,60.8,53.2,30.08,SSE,157,3.0,10.0,76,0.00,,FEW250,0.00,VWS V14.01,2013-10-08 18:32:00,
2013-10-08 13:35:00,60.9,53.3,30.07,SSE,161,1.0,10.0,76,0.00,,OVC016,0.00,VWS V14.01,2013-10-08 18:35:00,
2013-10-08 13:37:00,61.0,53.8,30.07,SSE,162,6.0,7.0,77,0.00,,FEW250,0.00,VWS V14.01,2013-10-08 18:37:00,
2013-10-08 13:40:00,60.9,53.7,30.07,ESE,113,5.0,10.0,77,0.00,,OVC016,0.00,VWS V14.01,2013-10-08 18:40:00,
2013-10-08 13:42:00,60.9,53.7,30.07,SE,132,5.0,10.0,77,0.00,,FEW250,0.00,VWS V14.01,2013-10-08 18:42:00,
2013-10-08 13:45:00,61.0,54.1,30.07,ESE,119,7.0,9.0,78,0.00,,OVC016,0.00,VWS V14.01,2013-10-08 18:45:00,
2013-10-08 13:47:00,61.3,54.4,30.07,SSE,155,3.0,9.0,78,0.00,,FEW250,0.00,VWS V14.01,2013-10-08 18:47:00,
2013-10-08 13:50:00,61.4,54.1,30.07,ESE,122,5.0,9.0,77,0.00,,OVC016,0.00,VWS V14.01,2013-10-08 18:50:00,
2013-10-08 13:52:00,61.6,54.3,30.07,ESE,123,0.0,7.0,77,0.00,,FEW250,0.00,VWS V14.01,2013-10-08 18:52:00,
2013-10-08 13:55:00,61.7,54.8,30.07,ESE,120,0.0,9.0,78,0.00,,OVC016,0.00,VWS V14.01,2013-10-08 18:55:00,
2013-10-08 13:57:00,61.8,54.5,30.07,SE,126,2.0,9.0,77,0.00,,FEW250,0.00,VWS V14.01,2013-10-08 18:57:00,
2013-10-08 14:00:00,61.8,54.5,30.07,SSE,153,0.0,9.0,77,0.00,,OVC016,0.00,VWS V14.01,2013-10-08 19:00:00,
2013-10-08 14:02:00,61.9,55.3,30.07,ESE,119,5.0,11.0,79,0.00,,FEW250,0.00,VWS V14.01,2013-10-08 19:02:00,
2013-10-08 14:05:00,62.0,55.4,30.06,ESE,107,0.0,11.0,79,0.00,,OVC016,0.00,VWS V14.01,2013-10-08 19:05:00,
2013-10-08 14:08:00,62.0,55.4,30.07,SW,229,0.0,10.0,79,0.00,,FEW250,0.00,VWS V14.01,2013-10-08 19:08:00,
2013-10-08 14:10:00,62.2,55.6,30.07,SE,131,3.0,10.0,79,0.00,,OVC016,0.00,VWS V14.01,2013-10-08 19:10:00,
2013-10-08 14:13:00,62.3,55.4,30.06,SE,130,0.0,10.0,78,0.00,,FEW250,0.00,VWS V14.01,2013-10-08 19:13:00,
2013-10-08 14:15:00,62.3,55.0,30.07,SE,144,5.0,9.0,77,0.00,,OVC016,0.00,VWS V14.01,2013-10-08 19:15:00,
2013-10-08 14:18:00,62.3,55.0,30.06,SSE,147,0.0,9.0,77,0.00,,FEW250,0.00,VWS V14.01,2013-10-08 19:18:00,
2013-10-08 14:20:00,62.2,54.5,30.06,SE,125,0.0,8.0,76,0.00,,OVC016,0.00,VWS V14.01,2013-10-08 19:20:00,
2013-10-08 14:23:00,62.2,54.5,30.06,SE,131,3.0,8.0,76,0.00,,FEW250,0.00,VWS V14.01,2013-10-08 19:23:00,
2013-10-08 14:25:00,62.3,54.7,30.06,SSE,159,4.0,8.0,76,0.00,,OVC016,0.00,VWS V14.01,2013-10-08 19:25:00,
2013-10-08 14:28:00,62.4,55.1,30.06,ESE,115,2.0,11.0,77,0.00,,FEW250,0.00,VWS V14.01,2013-10-08 19:28:00,
2013-10-08 14:30:00,62.3,55.0,30.07,SE,139,3.0,11.0,77,0.00,,OVC016,0.00,VWS V14.01,2013-10-08 19:30:00,
2013-10-08 14:33:00,62.2,55.3,30.06,SE,130,6.0,12.0,78,0.00,,FEW250,0.00,VWS V14.01,2013-10-08 19:33:00,
2013-10-08 14:35:00,62.2,55.3,30.06,SE,143,6.0,12.0,78,0.00,,OVC016,0.00,VWS V14.01,2013-10-08 19:35:00,
2013-10-08 14:38:00,62.2,56.0,30.06,SSE,150,0.0,9.0,80,0.00,,FEW250,0.00,VWS V14.01,2013-10-08 19:38:00,
2013-10-08 14:40:00,62.3,56.1,30.06,SSE,164,0.0,6.0,80,0.00,,OVC016,0.00,VWS V14.01,2013-10-08 19:40:00,
2013-10-08 14:43:00,62.5,56.2,30.06,SE,128,0.0,10.0,80,0.00,,FEW250,0.00,VWS V14.01,2013-10-08 19:43:00,
2013-10-08 14:45:00,62.5,56.3,30.06,SSE,147,0.0,8.0,80,0.00,,OVC016,0.00,VWS V14.01,2013-10-08 19:45:00,
2013-10-08 14:48:00,62.7,56.1,30.06,SE,144,4.0,7.0,79,0.00,,FEW250,0.00,VWS V14.01,2013-10-08 19:48:00,
2013-10-08 14:50:00,62.7,55.8,30.06,SSE,150,0.0,7.0,78,0.00,,OVC016,0.00,VWS V14.01,2013-10-08 19:50:00,
2013-10-08 14:53:00,62.6,56.0,30.06,SE,134,0.0,7.0,79,0.00,,FEW250,0.00,VWS V14.01,2013-10-08 19:53:00,
2013-10-08 14:55:00,62.6,56.0,30.06,SSE,148,3.0,7.0,79,0.00,,OVC016,0.00,VWS V14.01,2013-10-08 19:55:00,
2013-10-08 14:58:00,62.4,55.8,30.06,SE,140,3.0,10.0,79,0.00,,FEW250,0.00,VWS V14.01,2013-10-08 19:58:00,
2013-10-08 15:00:00,62.4,55.8,30.06,SE,134,6.0,9.0,79,0.00,,OVC016,0.00,VWS V14.01,2013-10-08 20:00:00,
2013-10-08 15:03:00,62.3,56.1,30.06,SE,133,6.0,10.0,80,0.00,,FEW250,0.00,VWS V14.01,2013-10-08 20:03:00,
2013-10-08 15:05:00,62.3,56.1,30.06,SE,138,4.0,10.0,80,0.00,,OVC016,0.00,VWS V14.01,2013-10-08 20:05:00,
2013-10-08 15:08:00,62.3,56.1,30.06,SSE,155,3.0,9.0,80,0.00,,FEW250,0.00,VWS V14.01,2013-10-08 20:08:00,
2013-10-08 15:10:00,62.2,56.0,30.06,ESE,122,0.0,9.0,80,0.00,,OVC016,0.00,VWS V14.01,2013-10-08 20:10:00,
2013-10-08 15:13:00,62.2,56.0,30.06,SSE,150,0.0,6.0,80,0.00,,FEW250,0.00,VWS V14.01,2013-10-08 20:13:00,
2013-10-08 15:15:00,62.2,56.3,30.06,SE,145,0.0,6.0,81,0.00,,OVC016,0.00,VWS V14.01,2013-10-08 20:15:00,
2013-10-08 15:19:00,62.4,56.5,30.06,ESE,115,0.0,10.0,81,0.00,,FEW250,0.00,VWS V14.01,2013-10-08 20:19:00,
2013-10-08 15:20:00,62.4,56.5,30.06,North,360,0.0,10.0,81,0.00,,OVC016,0.00,VWS V14.01,2013-10-08 20:20:00,
2013-10-08 15:24:00,62.1,55.9,30.06,North,360,0.0,11.0,80,0.00,,FEW250,0.00,VWS V14.01,2013-10-08 20:24:00,
2013-10-08 15:25:00,62.0,55.8,30.06,SE,139,0.0,11.0,80,0.00,,OVC016,0.00,VWS V14.01,2013-10-08 20:25:00,
2013-10-08 15:29:00,61.7,55.8,30.06,SSE,163,0.0,11.0,81,0.00,,FEW250,0.00,VWS V14.01,2013-10-08 20:29:00,
2013-10-08 15:30:00,61.7,55.8,30.06,South,169,1.0,11.0,81,0.00,,OVC016,0.00,VWS V14.01,2013-10-08 20:30:00,
2013-10-08 15:34:00,61.8,55.9,30.06,SSE,165,0.0,10.0,81,0.00,,FEW250,0.00,VWS V14.01,2013-10-08 20:34:00,
2013-10-08 15:35:00,61.8,55.9,30.06,SSE,155,0.0,10.0,81,0.00,,OVC016,0.00,VWS V14.01,2013-10-08 20:35:00,
2013-10-08 15:39:00,62.1,56.2,30.06,North,360,5.0,12.0,81,0.00,,FEW250,0.00,VWS V14.01,2013-10-08 20:39:00,
2013-10-08 15:40:00,62.1,56.2,30.06,SSE,161,7.0,12.0,81,0.00,,OVC016,0.00,VWS V14.01,2013-10-08 20:40:00,
2013-10-08 15:44:00,62.1,56.2,30.06,SE,141,4.0,8.0,81,0.00,,FEW250,0.00,VWS V14.01,2013-10-08 20:44:00,
2013-10-08 15:49:00,62.3,56.4,30.06,SE,146,0.0,9.0,81,0.00,,FEW250,0.00,VWS V14.01,2013-10-08 20:49:00,
2013-10-08 15:50:00,62.3,56.4,30.06,North,360,5.0,9.0,81,0.00,,OVC016,0.00,VWS V14.01,2013-10-08 20:50:00,
2013-10-08 15:54:00,62.4,56.5,30.06,East,88,0.0,10.0,81,0.00,,FEW250,0.00,VWS V14.01,2013-10-08 20:54:00,
2013-10-08 15:55:00,62.4,56.5,30.06,SE,139,4.0,10.0,81,0.00,,OVC016,0.00,VWS V14.01,2013-10-08 20:55:00,
2013-10-08 15:59:00,62.1,56.2,30.06,SSE,150,0.0,10.0,81,0.00,,FEW250,0.00,VWS V14.01,2013-10-08 20:59:00,
2013-10-08 16:00:00,62.1,56.2,30.06,SE,141,0.0,10.0,81,0.00,,OVC016,0.00,VWS V14.01,2013-10-08 21:00:00,
2013-10-08 16:04:00,62.2,56.6,30.06,North,360,4.0,7.0,82,0.00,,FEW250,0.00,VWS V14.01,2013-10-08 21:04:00,
2013-10-08 16:05:00,62.1,56.5,30.06,SE,141,0.0,7.0,82,0.00,,OVC016,0.00,VWS V14.01,2013-10-08 21:05:00,
2013-10-08 16:09:00,62.3,56.7,30.05,SSE,155,0.0,7.0,82,0.00,,FEW250,0.00,VWS V14.01,2013-10-08 21:09:00,
2013-10-08 16:10:00,62.3,56.7,30.05,SSE,155,0.0,7.0,82,0.00,,OVC016,0.00,VWS V14.01,2013-10-08 21:10:00,
2013-10-08 16:14:00,62.6,57.0,30.05,East,87,0.0,12.0,82,0.00,,FEW250,0.00,VWS V14.01,2013-10-08 21:14:00,
2013-10-08 16:15:00,62.6,57.0,30.05,East,91,0.0,12.0,82,0.00,,OVC016,0.00,VWS V14.01,2013-10-08 21:15:00,
2013-10-08 16:19:00,62.6,58.0,30.05,SSE,157,0.0,8.0,85,0.00,,FEW250,0.00,VWS V14.01,2013-10-08 21:19:00,
2013-10-08 16:20:00,62.6,58.0,30.05,SSE,157,0.0,8.0,85,0.00,,OVC016,0.00,VWS V14.01,2013-10-08 21:20:00,
2013-10-08 16:24:00,62.7,57.1,30.05,ESE,106,3.0,7.0,82,0.00,,FEW250,0.00,VWS V14.01,2013-10-08 21:24:00,
2013-10-08 16:25:00,62.7,57.1,30.05,ESE,106,3.0,7.0,82,0.00,,OVC016,0.00,VWS V14.01,2013-10-08 21:25:00,
2013-10-08 16:29:00,62.6,57.0,30.05,SSE,165,0.0,9.0,82,0.00,,FEW250,0.00,VWS V14.01,2013-10-08 21:29:00,
2013-10-08 16:30:00,62.6,57.0,30.05,SSE,165,0.0,9.0,82,0.00,,OVC016,0.00,VWS V14.01,2013-10-08 21:30:00,
2013-10-08 16:34:00,62.5,56.9,30.05,SSE,148,4.0,12.0,82,0.00,,FEW250,0.00,VWS V14.01,2013-10-08 21:34:00,
2013-10-08 16:35:00,62.5,56.9,30.05,SSE,148,4.0,12.0,82,0.00,,OVC016,0.00,VWS V14.01,2013-10-08 21:35:00,
2013-10-08 16:39:00,62.7,56.5,30.05,SSE,148,0.0,10.0,80,0.00,,FEW250,0.00,VWS V14.01,2013-10-08 21:39:00,
2013-10-08 16:40:00,62.7,56.5,30.05,SSE,148,0.0,10.0,80,0.00,,OVC016,0.00,VWS V14.01,2013-10-08 21:40:00,
2013-10-08 16:44:00,63.0,56.7,30.06,SSE,152,0.0,6.0,80,0.00,,FEW250,0.00,VWS V14.01,2013-10-08 21:44:00,
2013-10-08 16:45:00,63.0,56.7,30.06,SSE,152,0.0,6.0,80,0.00,,OVC016,0.00,VWS V14.01,2013-10-08 21:45:00,
2013-10-08 16:49:00,63.3,56.7,30.05,SE,134,0.0,7.0,79,0.00,,FEW250,0.00,VWS V14.01,2013-10-08 21:49:00,
2013-10-08 16:50:00,63.3,56.7,30.05,SE,134,0.0,7.0,79,0.00,,OVC016,0.00,VWS V14.01,2013-10-08 21:50:00,
2013-10-08 16:54:00,63.4,56.8,30.05,SSE,168,1.0,4.0,79,0.00,,FEW250,0.00,VWS V14.01,2013-10-08 21:54:00,
2013-10-08 16:55:00,63.4,56.8,30.05,SSE,168,1.0,4.0,79,0.00,,OVC016,0.00,VWS V14.01,2013-10-08 21:55:00,
2013-10-08 16:59:00,63.4,56.8,30.05,SSW,194,0.0,8.0,79,0.00,,FEW250,0.00,VWS V14.01,2013-10-08 21:59:00,
2013-10-08 17:00:00,63.4,56.8,30.05,SSW,194,0.0,8.0,79,0.00,,OVC016,0.00,VWS V14.01,2013-10-08 22:00:00,
2013-10-08 17:04:00,63.4,56.8,30.05,SE,140,0.0,8.0,79,0.00,,FEW250,0.00,VWS V14.01,2013-10-08 22:04:00,
2013-10-08 17:05:00,63.4,56.8,30.05,SE,140,0.0,8.0,79,0.00,,OVC016,0.00,VWS V14.01,2013-10-08 22:05:00,
2013-10-08 17:09:00,63.5,56.9,30.05,East,95,6.0,7.0,79,0.00,,FEW250,0.00,VWS V14.01,2013-10-08 22:09:00,
2013-10-08 17:10:00,63.5,56.9,30.05,East,95,6.0,7.0,79,0.00,,OVC016,0.00,VWS V14.01,2013-10-08 22:10:00,
2013-10-08 17:14:00,63.5,56.5,30.06,North,360,4.0,13.0,78,0.00,,FEW250,0.00,VWS V14.01,2013-10-08 22:14:00,
2013-10-08 17:15:00,63.5,56.5,30.06,North,360,4.0,13.0,78,0.00,,OVC016,0.00,VWS V14.01,2013-10-08 22:15:00,
2013-10-08 17:19:00,63.9,56.6,30.06,North,360,0.0,10.0,77,0.00,,FEW250,0.00,VWS V14.01,2013-10-08 22:19:00,
2013-10-08 17:20:00,63.9,56.6,30.06,North,360,0.0,10.0,77,0.00,,OVC016,0.00,VWS V14.01,2013-10-08 22:20:00,
2013-10-08 17:24:00,64.1,56.4,30.06,SE,136,5.0,9.0,76,0.00,,FEW250,0.00,VWS V14.01,2013-10-08 22:24:00,
2013-10-08 17:25:00,64.1,56.4,30.06,SE,136,5.0,9.0,76,0.00,,OVC016,0.00,VWS V14.01,2013-10-08 22:25:00,
2013-10-08 17:29:00,64.0,56.3,30.05,SE,128,0.0,12.0,76,0.00,,FEW250,0.00,VWS V14.01,2013-10-08 22:29:00,
2013-10-08 17:30:00,64.0,56.3,30.05,SE,128,0.0,12.0,76,0.00,,OVC016,0.00,VWS V14.01,2013-10-08 22:30:00,
2013-10-08 17:34:00,63.9,56.2,30.05,SSE,162,0.0,9.0,76,0.00,,FEW250,0.00,VWS V14.01,2013-10-08 22:34:00,
2013-10-08 17:35:00,63.9,56.2,30.05,SSE,162,0.0,9.0,76,0.00,,OVC016,0.00,VWS V14.01,2013-10-08 22:35:00,
2013-10-08 17:39:00,63.9,56.2,30.05,SE,134,0.0,7.0,76,0.00,,FEW250,0.00,VWS V14.01,2013-10-08 22:39:00,
2013-10-08 17:40:00,63.9,56.2,30.05,SE,134,0.0,7.0,76,0.00,,OVC016,0.00,VWS V14.01,2013-10-08 22:40:00,
2013-10-08 17:44:00,63.8,56.1,30.05,North,360,1.0,7.0,76,0.00,,FEW250,0.00,VWS V14.01,2013-10-08 22:44:00,
2013-10-08 17:45:00,63.8,56.1,30.05,North,360,1.0,7.0,76,0.00,,OVC016,0.00,VWS V14.01,2013-10-08 22:45:00,
2013-10-08 17:50:00,63.4,55.7,30.05,SSE,150,0.0,4.0,76,0.00,,FEW250,0.00,VWS V14.01,2013-10-08 22:50:00,
2013-10-08 17:55:00,62.7,55.4,30.05,South,169,0.0,1.0,77,0.00,,FEW250,0.00,VWS V14.01,2013-10-08 22:55:00,
2013-10-08 18:00:00,62.5,55.2,30.05,SSE,155,5.0,8.0,77,0.00,,OVC016,0.00,VWS V14.01,2013-10-08 23:00:00,
2013-10-08 18:01:00,62.3,55.0,30.05,SSE,168,0.0,8.0,77,0.00,,FEW250,0.00,VWS V14.01,2013-10-08 23:01:00,
2013-10-08 18:05:00,62.2,54.9,30.05,SE,142,2.0,7.0,77,0.00,,OVC016,0.00,VWS V14.01,2013-10-08 23:05:00,
2013-10-08 18:06:00,62.2,54.9,30.05,SE,136,0.0,7.0,77,0.00,,FEW250,0.00,VWS V14.01,2013-10-08 23:06:00,
2013-10-08 18:10:00,62.0,55.1,30.05,SSE,158,0.0,0.0,78,0.00,,OVC016,0.00,VWS V14.01,2013-10-08 23:10:00,
2013-10-08 18:11:00,61.9,55.0,30.05,SE,145,0.0,4.0,78,0.00,,FEW250,0.00,VWS V14.01,2013-10-08 23:11:00,
2013-10-08 18:15:00,61.7,54.8,30.05,SE,124,0.0,6.0,78,0.00,,OVC016,0.00,VWS V14.01,2013-10-08 23:15:00,
2013-10-08 18:16:00,61.6,54.7,30.05,SSE,153,0.0,5.0,78,0.00,,FEW250,0.00,VWS V14.01,2013-10-08 23:16:00,
2013-10-08 18:20:00,61.4,54.5,30.05,ESE,105,0.0,3.0,78,0.00,,OVC016,0.00,VWS V14.01,2013-10-08 23:20:00,
2013-10-08 18:21:00,61.4,54.5,30.05,SSE,153,0.0,3.0,78,0.00,,FEW250,0.00,VWS V14.01,2013-10-08 23:21:00,
2013-10-08 18:25:00,61.3,54.4,30.05,SW,215,0.0,1.0,78,0.00,,OVC016,0.00,VWS V14.01,2013-10-08 23:25:00,
2013-10-08 18:26:00,61.4,54.5,30.05,SE,139,0.0,9.0,78,0.00,,FEW250,0.00,VWS V14.01,2013-10-08 23:26:00,
2013-10-08 18:30:00,61.7,55.1,30.05,SE,130,0.0,13.0,79,0.00,,OVC016,0.00,VWS V14.01,2013-10-08 23:30:00,
2013-10-08 18:31:00,61.9,55.3,30.05,North,360,0.0,13.0,79,0.00,,FEW250,0.00,VWS V14.01,2013-10-08 23:31:00,
2013-10-08 18:35:00,62.2,55.3,30.05,East,81,0.0,7.0,78,0.00,,OVC016,0.00,VWS V14.01,2013-10-08 23:35:00,
2013-10-08 18:36:00,62.3,55.0,30.05,SSW,202,0.0,10.0,77,0.00,,FEW250,0.00,VWS V14.01,2013-10-08 23:36:00,
2013-10-08 18:40:00,62.5,55.2,30.06,SSE,164,0.0,8.0,77,0.00,,OVC016,0.00,VWS V14.01,2013-10-08 23:40:00,
2013-10-08 18:41:00,62.5,55.2,30.06,North,360,2.0,8.0,77,0.00,,FEW250,0.00,VWS V14.01,2013-10-08 23:41:00,
2013-10-08 18:46:00,62.8,55.5,30.05,SSE,153,0.0,12.0,77,0.00,,FEW250,0.00,VWS V14.01,2013-10-08 23:46:00,
2013-10-08 18:50:00,62.9,55.2,30.05,North,360,1.0,8.0,76,0.00,,OVC016,0.00,VWS V14.01,2013-10-08 23:50:00,
2013-10-08 18:51:00,63.0,55.3,30.05,SSE,153,0.0,8.0,76,0.00,,FEW250,0.00,VWS V14.01,2013-10-08 23:51:00,
2013-10-08 18:55:00,63.0,55.3,30.05,North,360,1.0,7.0,76,0.00,,OVC016,0.00,VWS V14.01,2013-10-08 23:55:00,
2013-10-08 18:56:00,63.0,55.3,30.06,South,171,0.0,12.0,76,0.00,,FEW250,0.00,VWS V14.01,2013-10-08 23:56:00,
2013-10-08 19:00:00,63.1,55.4,30.05,North,360,1.0,12.0,76,0.00,,OVC016,0.00,VWS V14.01,2013-10-09 00:00:00,
2013-10-08 19:01:00,63.2,55.5,30.05,SSE,148,5.0,10.0,76,0.00,,SCT250,0.00,VWS V14.01,2013-10-09 00:01:00,
2013-10-08 19:05:00,63.2,55.5,30.06,North,360,2.0,10.0,76,0.00,,OVC016,0.00,VWS V14.01,2013-10-09 00:05:00,
2013-10-08 19:07:00,63.2,55.5,30.05,SSE,153,2.0,14.0,76,0.00,,SCT250,0.00,VWS V14.01,2013-10-09 00:07:00,
2013-10-08 19:10:00,63.3,55.6,30.05,North,360,0.0,9.0,76,0.00,,OVC016,0.00,VWS V14.01,2013-10-09 00:10:00,
2013-10-08 19:12:00,63.3,55.6,30.05,SE,141,0.0,9.0,76,0.00,,SCT250,0.00,VWS V14.01,2013-10-09 00:12:00,
2013-10-08 19:15:00,63.3,55.6,30.06,SSE,153,8.0,11.0,76,0.00,,OVC016,0.00,VWS V14.01,2013-10-09 00:15:00,
2013-10-08 19:17:00,63.4,55.7,30.06,North,360,12.0,13.0,76,0.00,,SCT250,0.00,VWS V14.01,2013-10-09 00:17:00,
2013-10-08 19:20:00,63.5,55.4,30.06,SSE,167,0.0,13.0,75,0.00,,OVC016,0.00,VWS V14.01,2013-10-09 00:20:00,
2013-10-08 19:22:00,63.6,55.5,30.06,North,360,7.0,10.0,75,0.00,,SCT250,0.00,VWS V14.01,2013-10-09 00:22:00,
2013-10-08 19:25:00,63.6,55.5,30.06,SSW,192,7.0,10.0,75,0.00,,OVC016,0.00,VWS V14.01,2013-10-09 00:25:00,
2013-10-08 19:27:00,63.5,55.4,30.06,SSE,149,0.0,13.0,75,0.00,,SCT250,0.00,VWS V14.01,2013-10-09 00:27:00,
2013-10-08 19:30:00,63.5,55.4,30.06,SSE,158,0.0,8.0,75,0.00,,OVC016,0.00,VWS V14.01,2013-10-09 00:30:00,
2013-10-08 19:32:00,63.5,55.4,30.06,SSE,156,0.0,8.0,75,0.00,,SCT250,0.00,VWS V14.01,2013-10-09 00:32:00,
2013-10-08 19:37:00,63.5,55.4,30.06,SE,142,0.0,9.0,75,0.00,,SCT250,0.00,VWS V14.01,2013-10-09 00:37:00,
2013-10-08 19:40:00,63.5,55.4,30.06,North,360,10.0,12.0,75,0.00,,OVC016,0.00,VWS V14.01,2013-10-09 00:40:00,
2013-10-08 19:42:00,63.5,55.8,30.07,SSE,153,4.0,15.0,76,0.00,,SCT250,0.00,VWS V14.01,2013-10-09 00:42:00,
2013-10-08 19:45:00,63.6,55.2,30.07,North,360,4.0,15.0,74,0.00,,OVC016,0.00,VWS V14.01,2013-10-09 00:45:00,
2013-10-08 19:47:00,63.6,55.2,30.06,South,173,3.0,13.0,74,0.00,,SCT250,0.00,VWS V14.01,2013-10-09 00:47:00,
2013-10-08 19:50:00,63.6,55.2,30.06,North,360,0.0,11.0,74,0.00,,OVC016,0.00,VWS V14.01,2013-10-09 00:50:00,
2013-10-08 19:52:00,63.5,55.1,30.07,South,171,2.0,11.0,74,0.00,,SCT250,0.00,VWS V14.01,2013-10-09 00:52:00,
2013-10-08 19:55:00,63.5,55.1,30.07,South,169,0.0,11.0,74,0.00,,OVC016,0.00,VWS V14.01,2013-10-09 00:55:00,
2013-10-08 19:57:00,63.5,55.1,30.07,North,360,0.0,9.0,74,0.00,,SCT250,0.00,VWS V14.01,2013-10-09 00:57:00,
2013-10-08 20:00:00,63.5,55.1,30.07,North,360,0.0,9.0,74,0.00,,OVC016,0.00,VWS V14.01,2013-10-09 01:00:00,
2013-10-08 20:02:00,63.4,55.0,30.07,SSE,148,5.0,11.0,74,0.00,,FEW250,0.00,VWS V14.01,2013-10-09 01:02:00,
2013-10-08 20:05:00,63.3,54.9,30.07,South,178,1.0,11.0,74,0.00,,OVC016,0.00,VWS V14.01,2013-10-09 01:05:00,
2013-10-08 20:07:00,63.2,54.8,30.06,South,178,0.0,5.0,74,0.00,,FEW250,0.00,VWS V14.01,2013-10-09 01:07:00,
2013-10-08 20:10:00,63.3,54.5,30.06,North,360,12.0,12.0,73,0.00,,OVC016,0.00,VWS V14.01,2013-10-09 01:10:00,
2013-10-08 20:13:00,63.4,54.6,30.07,SSW,194,3.0,13.0,73,0.00,,FEW250,0.00,VWS V14.01,2013-10-09 01:13:00,
2013-10-08 20:15:00,63.3,54.5,30.07,North,360,4.0,10.0,73,0.00,,OVC016,0.00,VWS V14.01,2013-10-09 01:15:00,
2013-10-08 20:18:00,63.3,54.5,30.07,South,177,9.0,14.0,73,0.00,,FEW250,0.00,VWS V14.01,2013-10-09 01:18:00,
2013-10-08 20:20:00,63.3,54.1,30.07,SSE,163,4.0,13.0,72,0.00,,OVC016,0.00,VWS V14.01,2013-10-09 01:20:00,
2013-10-08 20:23:00,63.4,54.2,30.07,North,360,0.0,13.0,72,0.00,,FEW250,0.00,VWS V14.01,2013-10-09 01:23:00,
2013-10-08 20:25:00,63.4,54.2,30.07,SSE,158,0.0,9.0,72,0.00,,OVC016,0.00,VWS V14.01,2013-10-09 01:25:00,
2013-10-08 20:28:00,63.5,54.3,30.07,North,360,10.0,11.0,72,0.00,,FEW250,0.00,VWS V14.01,2013-10-09 01:28:00,
2013-10-08 20:30:00,63.5,54.3,30.07,North,360,9.0,12.0,72,0.00,,OVC016,0.00,VWS V14.01,2013-10-09 01:30:00,
2013-10-08 20:33:00,63.6,54.0,30.07,South,178,0.0,14.0,71,0.00,,FEW250,0.00,VWS V14.01,2013-10-09 01:33:00,
2013-10-08 20:35:00,63.6,54.0,30.07,North,360,0.0,14.0,71,0.00,,OVC016,0.00,VWS V14.01,2013-10-09 01:35:00,
2013-10-08 20:38:00,63.6,54.0,30.07,South,188,6.0,10.0,71,0.00,,FEW250,0.00,VWS V14.01,2013-10-09 01:38:00,
2013-10-08 20:40:00,63.6,54.0,30.07,North,360,0.0,9.0,71,0.00,,OVC016,0.00,VWS V14.01,2013-10-09 01:40:00,
2013-10-08 20:43:00,63.7,54.1,30.07,North,360,8.0,15.0,71,0.00,,FEW250,0.00,VWS V14.01,2013-10-09 01:43:00,
2013-10-08 20:45:00,63.7,54.1,30.07,North,360,0.0,15.0,71,0.00,,OVC016,0.00,VWS V14.01,2013-10-09 01:45:00,
2013-10-08 20:48:00,63.8,54.2,30.07,North,360,6.0,15.0,71,0.00,,FEW250,0.00,VWS V14.01,2013-10-09 01:48:00,
2013-10-08 20:50:00,63.8,53.8,30.07,North,360,9.0,15.0,70,0.00,,OVC016,0.00,VWS V14.01,2013-10-09 01:50:00,
2013-10-08 20:53:00,63.8,54.2,30.07,North,360,15.0,15.0,71,0.00,,FEW250,0.00,VWS V14.01,2013-10-09 01:53:00,
2013-10-08 20:55:00,63.9,53.9,30.07,North,360,11.0,16.0,70,0.00,,OVC016,0.00,VWS V14.01,2013-10-09 01:55:00,
2013-10-08 20:58:00,63.8,53.8,30.07,South,182,5.0,13.0,70,0.00,,FEW250,0.00,VWS V14.01,2013-10-09 01:58:00,
2013-10-08 21:00:00,63.8,53.8,30.07,SSE,160,0.0,13.0,70,0.00,,OVC016,0.00,VWS V14.01,2013-10-09 02:00:00,
2013-10-08 21:03:00,63.9,53.9,30.07,South,181,5.0,18.0,70,0.00,,FEW250,0.00,VWS V14.01,2013-10-09 02:03:00,
2013-10-08 21:05:00,63.8,53.8,30.07,North,360,13.0,18.0,70,0.00,,OVC016,0.00,VWS V14.01,2013-10-09 02:05:00,
2013-10-08 21:08:00,63.8,53.8,30.07,SSE,162,5.0,14.0,70,0.00,,FEW250,0.00,VWS V14.01,2013-10-09 02:08:00,
2013-10-08 21:10:00,63.8,53.8,30.07,SSW,200,6.0,14.0,70,0.00,,OVC016,0.00,VWS V14.01,2013-10-09 02:10:00,
2013-10-08 21:13:00,63.7,53.7,30.08,North,360,0.0,15.0,70,0.00,,FEW250,0.00,VWS V14.01,2013-10-09 02:13:00,
2013-10-08 21:15:00,63.7,53.7,30.08,North,360,9.0,13.0,70,0.00,,OVC016,0.00,VWS V14.01,2013-10-09 02:15:00,
2013-10-08 21:19:00,63.7,53.7,30.08,North,360,0.0,13.0,70,0.00,,FEW250,0.00,VWS V14.01,2013-10-09 02:19:00,
2013-10-08 21:20:00,63.7,53.7,30.08,SW,222,0.0,13.0,70,0.00,,OVC016,0.00,VWS V14.01,2013-10-09 02:20:00,
2013-10-08 21:24:00,63.5,53.5,30.08,North,360,4.0,12.0,70,0.00,,FEW250,0.00,VWS V14.01,2013-10-09 02:24:00,
2013-10-08 21:25:00,63.5,53.5,30.08,South,178,3.0,12.0,70,0.00,,OVC016,0.00,VWS V14.01,2013-10-09 02:25:00,
2013-10-08 21:29:00,63.3,53.4,30.08,SSE,166,0.0,11.0,70,0.00,,FEW250,0.00,VWS V14.01,2013-10-09 02:29:00,
2013-10-08 21:30:00,63.4,53.5,30.08,North,360,9.0,11.0,70,0.00,,OVC016,0.00,VWS V14.01,2013-10-09 02:30:00,
2013-10-08 21:34:00,63.4,53.5,30.08,North,360,4.0,15.0,70,0.00,,FEW250,0.00,VWS V14.01,2013-10-09 02:34:00,
2013-10-08 21:35:00,63.4,53.5,30.08,North,360,7.0,15.0,70,0.00,,OVC016,0.00,VWS V14.01,2013-10-09 02:35:00,
2013-10-08 21:39:00,63.3,53.4,30.08,SSE,157,0.0,11.0,70,0.00,,FEW250,0.00,VWS V14.01,2013-10-09 02:39:00,
2013-10-08 21:40:00,63.3,53.4,30.08,SSE,166,1.0,14.0,70,0.00,,OVC016,0.00,VWS V14.01,2013-10-09 02:40:00,
2013-10-08 21:44:00,63.3,53.4,30.08,North,360,9.0,14.0,70,0.00,,FEW250,0.00,VWS V14.01,2013-10-09 02:44:00,
2013-10-08 21:45:00,63.3,53.4,30.08,SSW,196,6.0,14.0,70,0.00,,OVC016,0.00,VWS V14.01,2013-10-09 02:45:00,
2013-10-08 21:49:00,63.4,53.1,30.08,North,360,8.0,14.0,69,0.00,,FEW250,0.00,VWS V14.01,2013-10-09 02:49:00,
2013-10-08 21:50:00,63.5,53.2,30.08,South,182,5.0,14.0,69,0.00,,OVC016,0.00,VWS V14.01,2013-10-09 02:50:00,
2013-10-08 21:54:00,63.5,53.2,30.08,North,360,7.0,11.0,69,0.00,,FEW250,0.00,VWS V14.01,2013-10-09 02:54:00,
2013-10-08 21:55:00,63.5,53.2,30.08,North,360,0.0,11.0,69,0.00,,OVC016,0.00,VWS V14.01,2013-10-09 02:55:00,
2013-10-08 21:59:00,63.5,53.2,30.08,SSE,161,4.0,11.0,69,0.00,,FEW250,0.00,VWS V14.01,2013-10-09 02:59:00,
2013-10-08 22:00:00,63.5,53.2,30.08,North,360,1.0,11.0,69,0.00,,OVC016,0.00,VWS V14.01,2013-10-09 03:00:00,
2013-10-08 22:04:00,63.5,53.2,30.08,North,360,6.0,11.0,69,0.00,,SCT250,0.00,VWS V14.01,2013-10-09 03:04:00,
2013-10-08 22:05:00,63.5,53.2,30.08,North,360,0.0,11.0,69,0.00,,OVC016,0.00,VWS V14.01,2013-10-09 03:05:00,
2013-10-08 22:09:00,63.4,52.7,30.08,South,172,2.0,11.0,68,0.00,,SCT250,0.00,VWS V14.01,2013-10-09 03:09:00,
2013-10-08 22:10:00,63.4,52.7,30.08,North,360,5.0,11.0,68,0.00,,OVC016,0.00,VWS V14.01,2013-10-09 03:10:00,
2013-10-08 22:14:00,63.3,52.6,30.08,South,179,1.0,10.0,68,0.00,,SCT250,0.00,VWS V14.01,2013-10-09 03:14:00,
2013-10-08 22:15:00,63.3,52.6,30.08,South,172,3.0,10.0,68,0.00,,OVC016,0.00,VWS V14.01,2013-10-09 03:15:00,
2013-10-08 22:19:00,63.2,52.5,30.08,South,178,10.0,10.0,68,0.00,,SCT250,0.00,VWS V14.01,2013-10-09 03:19:00,
2013-10-08 22:20:00,63.2,52.5,30.08,SSE,155,6.0,10.0,68,0.00,,OVC016,0.00,VWS V14.01,2013-10-09 03:20:00,
2013-10-08 22:24:00,63.2,52.5,30.08,North,360,0.0,11.0,68,0.00,,SCT250,0.00,VWS V14.01,2013-10-09 03:24:00,
2013-10-08 22:25:00,63.1,52.4,30.08,North,360,0.0,11.0,68,0.00,,OVC016,0.00,VWS V14.01,2013-10-09 03:25:00,
2013-10-08 22:29:00,63.1,52.8,30.08,North,360,6.0,11.0,69,0.00,,SCT250,0.00,VWS V14.01,2013-10-09 03:29:00,
2013-10-08 22:34:00,63.0,52.7,30.08,North,360,0.0,7.0,69,0.00,,SCT250,0.00,VWS V14.01,2013-10-09 03:34:00,
2013-10-08 22:39:00,62.9,52.6,30.08,SW,222,4.0,9.0,69,0.00,,SCT250,0.00,VWS V14.01,2013-10-09 03:39:00,
2013-10-08 22:40:00,62.9,52.6,30.08,SW,222,4.0,9.0,69,0.00,,OVC016,0.00,VWS V14.01,2013-10-09 03:40:00,
2013-10-08 22:44:00,62.9,52.6,30.08,North,360,0.0,9.0,69,0.00,,SCT250,0.00,VWS V14.01,2013-10-09 03:44:00,
2013-10-08 22:45:00,62.9,52.6,30.08,North,360,0.0,9.0,69,0.00,,OVC016,0.00,VWS V14.01,2013-10-09 03:45:00,
2013-10-08 22:49:00,63.0,52.7,30.08,North,360,5.0,9.0,69,0.00,,SCT250,0.00,VWS V14.01,2013-10-09 03:49:00,
2013-10-08 22:54:00,63.0,52.7,30.08,SSE,166,2.0,8.0,69,0.00,,SCT250,0.00,VWS V14.01,2013-10-09 03:54:00,
2013-10-08 22:59:00,63.0,52.3,30.08,South,171,1.0,11.0,68,0.00,,SCT250,0.00,VWS V14.01,2013-10-09 03:59:00,
2013-10-08 23:01:00,63.1,52.4,30.08,South,180,0.0,8.0,68,0.00,,SCT250,0.00,VWS V14.01,2013-10-09 04:01:00,
2013-10-08 23:02:00,63.1,52.4,30.08,South,181,2.0,11.0,68,0.00,,SCT250,0.00,VWS V14.01,2013-10-09 04:02:00,
2013-10-08 23:04:00,63.1,52.4,30.08,SSW,202,0.0,11.0,68,0.00,,SCT250,0.00,VWS V14.01,2013-10-09 04:04:00,
2013-10-08 23:05:00,63.1,52.4,30.08,North,360,0.0,11.0,68,0.00,,OVC016,0.00,VWS V14.01,2013-10-09 04:05:00,
2013-10-08 23:06:00,63.1,52.4,30.08,North,360,1.0,10.0,68,0.00,,SCT250,0.00,VWS V14.01,2013-10-09 04:06:00,
2013-10-08 23:10:00,63.0,52.3,30.08,North,360,7.0,11.0,68,0.00,,OVC016,0.00,VWS V14.01,2013-10-09 04:10:00,
2013-10-08 23:11:00,63.0,52.3,30.08,SSW,192,3.0,11.0,68,0.00,,SCT250,0.00,VWS V14.01,2013-10-09 04:11:00,
2013-10-08 23:12:00,63.0,52.3,30.08,North,360,7.0,11.0,68,0.00,,SCT250,0.00,VWS V14.01,2013-10-09 04:12:00,
2013-10-08 23:17:00,62.9,52.2,30.08,South,180,0.0,12.0,68,0.00,,SCT250,0.00,VWS V14.01,2013-10-09 04:17:00,
2013-10-08 23:20:00,62.7,52.4,30.08,SSW,196,0.0,10.0,69,0.00,,OVC016,0.00,VWS V14.01,2013-10-09 04:20:00,
2013-10-08 23:22:00,62.5,52.2,30.08,North,360,0.0,7.0,69,0.00,,SCT250,0.00,VWS V14.01,2013-10-09 04:22:00,
2013-10-08 23:25:00,62.4,52.5,30.08,North,360,0.0,0.0,70,0.00,,OVC016,0.00,VWS V14.01,2013-10-09 04:25:00,
2013-10-08 23:27:00,62.3,52.4,30.08,South,182,0.0,8.0,70,0.00,,SCT250,0.00,VWS V14.01,2013-10-09 04:27:00,
2013-10-08 23:30:00,62.2,52.3,30.08,SSE,167,0.0,6.0,70,0.00,,OVC016,0.00,VWS V14.01,2013-10-09 04:30:00,
2013-10-08 23:32:00,62.0,52.1,30.08,South,177,0.0,0.0,70,0.00,,SCT250,0.00,VWS V14.01,2013-10-09 04:32:00,
2013-10-08 23:35:00,61.9,52.4,30.08,South,177,0.0,0.0,71,0.00,,OVC016,0.00,VWS V14.01,2013-10-09 04:35:00,
2013-10-08 23:37:00,61.8,52.3,30.08,North,360,0.0,1.0,71,0.00,,SCT250,0.00,VWS V14.01,2013-10-09 04:37:00,
2013-10-08 23:40:00,61.7,52.2,30.08,South,178,0.0,1.0,71,0.00,,OVC016,0.00,VWS V14.01,2013-10-09 04:40:00,
2013-10-08 23:42:00,61.5,52.0,30.07,SSW,198,0.0,0.0,71,0.00,,SCT250,0.00,VWS V14.01,2013-10-09 04:42:00,
2013-10-08 23:45:00,61.4,52.3,30.08,SSW,197,0.0,0.0,72,0.00,,OVC016,0.00,VWS V14.01,2013-10-09 04:45:00,
2013-10-08 23:47:00,61.2,52.1,30.08,SSW,197,0.0,0.0,72,0.00,,SCT250,0.00,VWS V14.01,2013-10-09 04:47:00,
2013-10-08 23:50:00,61.1,52.4,30.08,SSW,197,0.0,0.0,73,0.00,,OVC016,0.00,VWS V14.01,2013-10-09 04:50:00,
2013-10-08 23:52:00,60.9,52.2,30.08,SSW,197,0.0,0.0,73,0.00,,SCT250,0.00,VWS V14.01,2013-10-09 04:52:00,
2013-10-08 23:55:00,60.8,52.5,30.08,SSW,198,0.0,1.0,74,0.00,,OVC016,0.00,VWS V14.01,2013-10-09 04:55:00,
2013-10-08 23:58:00,60.8,52.5,30.08,SSW,199,0.0,2.0,74,0.00,,SCT250,0.00,VWS V14.01,2013-10-09 04:58:00,